createdAt,value
2018-12-04T00:01:09.950Z,83.60
2018-12-04T00:03:38.033Z,82.60
2018-12-04T00:06:06.200Z,82.30
2018-12-04T00:08:34.250Z,82.50
2018-12-04T00:11:02.301Z,81.70
2018-12-04T00:13:30.630Z,81.10
2018-12-04T00:15:58.815Z,80.70
2018-12-04T00:18:27.246Z,81.10
2018-12-04T00:20:55.296Z,81.00
2018-12-04T00:23:23.279Z,80.40
2018-12-04T00:25:51.283Z,79.90
2018-12-04T00:28:19.341Z,79.50
2018-12-04T00:30:47.446Z,80.00
2018-12-04T00:33:15.595Z,80.00
2018-12-04T00:35:43.681Z,80.50
2018-12-04T00:38:11.749Z,80.70
2018-12-04T00:40:40.163Z,81.30
2018-12-04T00:43:08.208Z,81.00
2018-12-04T00:45:36.258Z,81.00
2018-12-04T00:48:04.467Z,80.80
2018-12-04T00:50:32.523Z,80.60
2018-12-04T00:53:00.543Z,81.00
2018-12-04T00:55:37.744Z,81.70
2018-12-04T00:58:06.902Z,80.90
2018-12-04T01:00:35.087Z,80.80
2018-12-04T01:03:03.294Z,81.10
2018-12-04T01:05:31.398Z,80.80
2018-12-04T01:07:59.590Z,80.50
2018-12-04T01:10:27.665Z,80.40
2018-12-04T01:12:55.693Z,80.30
2018-12-04T01:15:24.268Z,80.70
2018-12-04T01:17:52.414Z,80.60
2018-12-04T01:20:20.511Z,79.80
2018-12-04T01:22:48.526Z,82.30
2018-12-04T01:25:16.654Z,83.70
2018-12-04T01:27:44.976Z,84.90
2018-12-04T01:30:13.170Z,85.30
2018-12-04T01:32:41.420Z,85.50
2018-12-04T01:35:09.533Z,85.50
2018-12-04T01:37:37.697Z,85.20
2018-12-04T01:40:06.610Z,85.00
2018-12-04T01:42:34.582Z,84.80
2018-12-04T01:45:03.027Z,84.90
2018-12-04T01:47:31.145Z,84.00
2018-12-04T01:49:59.400Z,83.20
2018-12-04T01:52:27.497Z,82.70
2018-12-04T01:54:55.696Z,81.80
2018-12-04T01:57:24.004Z,81.10
2018-12-04T01:59:52.182Z,80.80
2018-12-04T02:02:20.352Z,80.90
2018-12-04T02:04:48.503Z,80.70
2018-12-04T02:07:16.586Z,80.50
2018-12-04T02:09:44.634Z,80.10
2018-12-04T02:12:12.632Z,79.90
2018-12-04T02:14:40.766Z,79.40
2018-12-04T02:17:08.814Z,78.40
2018-12-04T02:19:37.130Z,77.10
2018-12-04T02:22:05.331Z,76.40
2018-12-04T02:24:33.339Z,75.20
2018-12-04T02:27:01.600Z,74.60
2018-12-04T02:29:29.677Z,74.00
2018-12-04T02:31:57.872Z,73.50
2018-12-04T02:34:26.213Z,72.80
2018-12-04T02:36:54.286Z,72.10
2018-12-04T02:39:22.454Z,71.10
2018-12-04T02:41:50.585Z,70.40
2018-12-04T02:44:18.833Z,69.40
2018-12-04T02:46:47.029Z,69.60
2018-12-04T02:49:15.218Z,69.60
2018-12-04T02:51:43.234Z,69.60
2018-12-04T02:54:11.260Z,68.60
2018-12-04T02:56:39.574Z,68.70
2018-12-04T02:59:07.698Z,69.10
2018-12-04T03:01:35.934Z,68.70
2018-12-04T03:04:04.162Z,68.60
2018-12-04T03:06:32.305Z,68.30
2018-12-04T03:09:00.663Z,68.10
2018-12-04T03:11:28.680Z,67.50
2018-12-04T03:13:56.786Z,67.80
2018-12-04T03:16:24.876Z,68.00
2018-12-04T03:18:53.029Z,68.00
2018-12-04T03:21:21.223Z,67.10
2018-12-04T03:23:49.376Z,67.30
2018-12-04T03:26:17.466Z,66.90
2018-12-04T03:28:45.565Z,67.50
2018-12-04T03:31:13.610Z,67.90
2018-12-04T03:33:41.619Z,67.20
2018-12-04T03:36:09.914Z,66.30
2018-12-04T03:38:38.119Z,66.90
2018-12-04T03:41:06.349Z,66.40
2018-12-04T03:43:34.415Z,67.10
2018-12-04T03:46:02.737Z,68.10
2018-12-04T03:48:30.828Z,68.30
2018-12-04T03:50:58.857Z,67.60
2018-12-04T03:53:26.970Z,68.20
2018-12-04T03:55:55.624Z,67.60
2018-12-04T03:58:23.623Z,67.70
2018-12-04T04:00:51.761Z,67.60
2018-12-04T04:03:19.832Z,67.80
2018-12-04T04:05:48.423Z,67.60
2018-12-04T04:08:16.524Z,66.80
2018-12-04T04:10:44.652Z,65.10
2018-12-04T04:13:13.020Z,65.20
2018-12-04T04:15:41.198Z,62.90
2018-12-04T04:18:09.401Z,61.90
2018-12-04T04:20:37.525Z,61.90
2018-12-04T04:23:05.598Z,62.20
2018-12-04T04:25:33.777Z,61.30
2018-12-04T04:28:02.269Z,59.80
2018-12-04T04:30:30.413Z,59.70
2018-12-04T04:32:58.498Z,60.70
2018-12-04T04:35:26.609Z,58.80
2018-12-04T04:37:54.815Z,57.90
2018-12-04T04:40:22.931Z,57.80
2018-12-04T04:42:50.989Z,57.10
2018-12-04T04:45:19.215Z,55.30
2018-12-04T04:47:47.218Z,54.20
2018-12-04T04:50:15.383Z,54.20
2018-12-04T04:52:43.491Z,54.10
2018-12-04T04:55:11.660Z,54.60
2018-12-04T04:57:40.720Z,53.90
2018-12-04T05:00:09.107Z,55.20
2018-12-04T05:02:37.243Z,55.50
2018-12-04T05:05:05.469Z,56.20
2018-12-04T05:07:33.605Z,56.00
2018-12-04T05:10:01.801Z,57.00
2018-12-04T05:12:29.973Z,58.00
2018-12-04T05:14:58.032Z,59.30
2018-12-04T05:17:27.088Z,59.80
2018-12-04T05:19:56.050Z,60.30
2018-12-04T05:22:24.094Z,61.00
2018-12-04T05:24:52.463Z,61.20
2018-12-04T05:27:20.586Z,61.80
2018-12-04T05:29:49.483Z,61.40
2018-12-04T05:32:17.609Z,60.40
2018-12-04T05:34:45.691Z,60.40
2018-12-04T05:37:14.519Z,60.10
2018-12-04T05:39:43.241Z,60.10
2018-12-04T05:42:12.549Z,60.80
2018-12-04T05:44:40.784Z,61.60
2018-12-04T05:47:09.018Z,61.20
2018-12-04T05:49:37.198Z,61.60
2018-12-04T05:52:06.207Z,62.10
2018-12-04T05:54:35.003Z,62.40
2018-12-04T05:57:03.346Z,63.10
2018-12-04T05:59:32.968Z,63.50
2018-12-04T06:02:01.091Z,63.50
2018-12-04T06:04:30.468Z,63.30
2018-12-04T06:06:58.517Z,63.90
2018-12-04T06:09:26.636Z,64.10
2018-12-04T06:11:54.846Z,64.20
2018-12-04T06:14:26.213Z,65.00
2018-12-04T06:16:55.940Z,65.30
2018-12-04T06:19:24.494Z,65.40
2018-12-04T06:21:53.661Z,65.40
2018-12-04T06:24:22.321Z,65.60
2018-12-04T06:26:50.441Z,66.60
2018-12-04T06:29:18.591Z,66.30
2018-12-04T06:31:47.458Z,66.90
2018-12-04T06:34:15.486Z,66.40
2018-12-04T06:36:43.813Z,66.40
2018-12-04T06:39:11.998Z,67.20
2018-12-04T06:41:40.276Z,65.90
2018-12-04T06:44:08.398Z,66.20
2018-12-04T06:46:36.483Z,65.80
2018-12-04T06:49:05.926Z,65.00
2018-12-04T06:51:36.847Z,64.20
2018-12-04T06:54:04.894Z,63.70
2018-12-04T06:56:34.948Z,64.30
2018-12-04T06:59:03.034Z,64.30
2018-12-04T07:01:31.157Z,65.50
2018-12-04T07:03:59.476Z,67.20
2018-12-04T07:06:27.613Z,68.30
2018-12-04T07:08:55.803Z,70.60
2018-12-04T07:11:29.840Z,69.90
2018-12-04T07:14:01.290Z,67.80
2018-12-04T07:16:32.623Z,68.10
2018-12-04T07:21:49.776Z,67.50
2018-12-04T07:24:23.777Z,67.70
2018-12-04T07:26:51.985Z,67.60
2018-12-04T07:29:20.387Z,68.30
2018-12-04T07:31:48.509Z,68.60
2018-12-04T07:34:16.601Z,68.20
2018-12-04T07:40:34.184Z,66.80
2018-12-04T07:46:05.140Z,66.30
2018-12-04T07:53:35.743Z,66.30
2018-12-04T07:56:21.624Z,67.70
2018-12-04T07:59:15.317Z,67.70
2018-12-04T08:09:46.595Z,68.30
2018-12-04T08:12:27.206Z,68.60
2018-12-04T08:15:06.876Z,68.00
2018-12-04T08:17:34.965Z,68.60
2018-12-04T08:20:03.619Z,65.70
2018-12-04T08:22:31.665Z,63.50
2018-12-04T08:24:59.763Z,66.00
2018-12-04T08:27:33.716Z,67.40
2018-12-04T08:30:01.908Z,67.70
2018-12-04T08:32:29.925Z,67.80
2018-12-04T08:34:57.949Z,67.80
2018-12-04T08:37:26.010Z,66.70
2018-12-04T08:39:54.004Z,65.50
2018-12-04T08:42:22.104Z,65.00
2018-12-04T08:44:50.207Z,65.30
2018-12-04T08:47:18.384Z,62.30
2018-12-04T08:49:46.480Z,63.40
2018-12-04T08:52:14.580Z,60.50
2018-12-04T08:54:42.648Z,61.40
2018-12-04T08:57:10.687Z,61.60
2018-12-04T08:59:38.944Z,60.40
2018-12-04T09:02:07.181Z,59.80
2018-12-04T09:04:35.318Z,59.40
2018-12-04T09:07:03.402Z,58.60
2018-12-04T09:09:31.564Z,59.80
2018-12-04T09:11:59.685Z,58.20
2018-12-04T09:14:27.692Z,58.80
2018-12-04T09:16:55.818Z,58.70
2018-12-04T09:19:23.922Z,58.00
2018-12-04T09:21:52.119Z,58.60
2018-12-04T09:24:20.431Z,58.70
2018-12-04T09:26:48.721Z,58.30
2018-12-04T09:29:17.012Z,57.90
2018-12-04T09:31:45.217Z,58.50
2018-12-04T09:34:13.357Z,57.50
2018-12-04T09:36:41.485Z,59.40
2018-12-04T09:39:09.644Z,58.00
2018-12-04T09:41:38.077Z,58.50
2018-12-04T09:44:06.089Z,59.00
2018-12-04T09:46:34.114Z,59.00
2018-12-04T09:49:02.234Z,58.00
2018-12-04T09:51:30.388Z,59.30
2018-12-04T09:53:58.452Z,58.70
2018-12-04T09:56:26.657Z,59.00
2018-12-04T09:58:54.822Z,57.50
2018-12-04T10:01:22.905Z,57.80
2018-12-04T10:03:51.143Z,57.90
2018-12-04T10:06:19.232Z,57.60
2018-12-04T10:08:47.314Z,59.00
2018-12-04T10:11:15.411Z,59.60
2018-12-04T10:13:43.570Z,58.90
2018-12-04T10:16:11.694Z,57.60
2018-12-04T10:18:40.004Z,56.80
2018-12-04T10:21:08.153Z,57.50
2018-12-04T10:23:36.268Z,57.70
2018-12-04T10:26:04.478Z,57.60
2018-12-04T10:28:32.722Z,57.10
2018-12-04T10:31:06.641Z,58.00
2018-12-04T10:33:34.845Z,57.40
2018-12-04T10:36:02.923Z,57.60
2018-12-04T10:38:31.246Z,56.80
2018-12-04T10:40:59.316Z,57.70
2018-12-04T10:43:27.356Z,56.70
2018-12-04T10:45:55.384Z,56.70
2018-12-04T10:48:23.567Z,56.30
2018-12-04T10:50:51.614Z,55.30
2018-12-04T10:53:19.781Z,55.30
2018-12-04T10:55:47.850Z,56.40
2018-12-04T10:58:16.024Z,56.60
2018-12-04T11:00:49.818Z,55.70
2018-12-04T11:03:22.506Z,56.00
2018-12-04T11:05:50.535Z,56.40
2018-12-04T11:08:18.607Z,55.90
2018-12-04T11:10:46.835Z,56.30
2018-12-04T11:13:14.864Z,57.00
2018-12-04T11:15:43.039Z,57.30
2018-12-04T11:18:11.087Z,57.30
2018-12-04T11:20:39.119Z,58.00
2018-12-04T11:23:07.253Z,57.60
2018-12-04T11:25:35.416Z,57.80
2018-12-04T11:28:03.498Z,58.00
2018-12-04T11:30:31.584Z,57.60
2018-12-04T11:32:59.878Z,56.30
2018-12-04T11:35:27.952Z,56.40
2018-12-04T11:37:56.060Z,55.50
2018-12-04T11:40:24.278Z,54.90
2018-12-04T11:42:55.556Z,55.00
2018-12-04T11:45:23.763Z,55.60
2018-12-04T11:47:51.866Z,54.60
2018-12-04T11:50:19.931Z,53.80
2018-12-04T11:52:48.034Z,52.90
2018-12-04T11:55:16.076Z,52.30
2018-12-04T11:57:44.122Z,50.40
2018-12-04T12:00:32.556Z,48.60
2018-12-04T12:03:00.875Z,48.50
2018-12-04T12:05:29.042Z,48.20
2018-12-04T12:07:57.210Z,48.90
2018-12-04T12:10:25.622Z,48.40
2018-12-04T12:12:53.720Z,49.10
2018-12-04T12:15:22.006Z,50.30
2018-12-04T12:17:50.195Z,50.20
2018-12-04T12:20:18.344Z,49.10
2018-12-04T12:22:46.407Z,48.60
2018-12-04T12:25:14.552Z,49.10
2018-12-04T12:27:42.942Z,50.10
2018-12-04T12:30:11.151Z,49.70
2018-12-04T12:32:39.391Z,50.20
2018-12-04T12:35:08.047Z,50.50
2018-12-04T12:37:36.112Z,50.60
2018-12-04T12:40:06.926Z,50.90
2018-12-04T12:42:35.045Z,50.20
2018-12-04T12:45:03.819Z,50.00
2018-12-04T12:47:32.087Z,50.70
2018-12-04T12:50:00.191Z,50.30
2018-12-04T12:52:28.333Z,50.50
2018-12-04T12:54:56.441Z,50.80
2018-12-04T12:57:24.471Z,48.30
2018-12-04T12:59:52.621Z,47.90
2018-12-04T13:02:20.831Z,47.50
2018-12-04T13:04:48.902Z,45.70
2018-12-04T13:07:17.136Z,45.30
2018-12-04T13:09:45.239Z,44.80
2018-12-04T13:12:13.723Z,45.20
2018-12-04T13:14:41.786Z,45.20
2018-12-04T13:17:09.986Z,46.30
2018-12-04T13:19:38.066Z,42.60
2018-12-04T13:22:06.290Z,42.70
2018-12-04T13:24:34.485Z,44.10
2018-12-04T13:27:02.519Z,45.50
2018-12-04T13:29:30.803Z,45.60
2018-12-04T13:31:58.984Z,47.50
2018-12-04T13:34:27.678Z,47.60
2018-12-04T13:36:55.792Z,47.70
2018-12-04T13:39:23.933Z,47.70
2018-12-04T13:41:52.358Z,48.20
2018-12-04T13:44:20.482Z,47.70
2018-12-04T13:46:48.683Z,48.40
2018-12-04T13:49:17.037Z,49.20
2018-12-04T13:51:45.541Z,48.60
2018-12-04T13:54:13.791Z,50.80
2018-12-04T13:56:41.818Z,50.70
2018-12-04T13:59:09.890Z,50.20
2018-12-04T14:01:38.223Z,50.10
2018-12-04T14:04:06.368Z,49.90
2018-12-04T14:06:34.852Z,50.10
2018-12-04T14:09:04.353Z,50.00
2018-12-04T14:11:32.823Z,50.00
2018-12-04T14:14:01.154Z,48.60
2018-12-04T14:16:29.295Z,49.10
2018-12-04T14:18:57.568Z,49.00
2018-12-04T14:21:25.647Z,49.30
2018-12-04T14:23:53.903Z,49.70
2018-12-04T14:26:22.401Z,48.70
2018-12-04T14:28:50.826Z,48.70
2018-12-04T14:31:19.089Z,48.70
2018-12-04T14:33:47.238Z,49.20
2018-12-04T14:36:15.732Z,49.80
2018-12-04T14:38:43.885Z,49.30
2018-12-04T14:41:12.189Z,48.50
2018-12-04T14:43:40.859Z,47.70
2018-12-04T14:46:09.056Z,47.90
2018-12-04T14:48:37.250Z,47.90
2018-12-04T14:51:06.520Z,48.50
2018-12-04T14:53:35.930Z,48.50
2018-12-04T14:56:05.542Z,48.60
2018-12-04T14:58:33.984Z,50.60
2018-12-04T15:01:02.390Z,50.50
2018-12-04T15:03:30.667Z,51.10
2018-12-04T15:05:58.791Z,51.40
2018-12-04T15:08:27.214Z,52.70
2018-12-04T15:10:55.738Z,52.70
2018-12-04T15:13:24.023Z,53.00
2018-12-04T15:15:52.402Z,53.10
2018-12-04T15:18:20.641Z,53.50
2018-12-04T15:20:48.745Z,54.30
2018-12-04T15:23:17.024Z,54.50
2018-12-04T15:25:45.321Z,54.60
2018-12-04T15:28:13.683Z,54.80
2018-12-04T15:30:41.912Z,55.40
2018-12-04T15:33:10.065Z,56.40
2018-12-04T15:35:38.230Z,57.80
2018-12-04T15:38:06.443Z,58.70
2018-12-04T15:40:34.909Z,58.80
2018-12-04T15:43:03.430Z,59.00
2018-12-04T15:45:31.948Z,58.70
2018-12-04T15:48:00.295Z,58.20
2018-12-04T15:50:28.724Z,57.50
2018-12-04T15:52:57.107Z,57.80
2018-12-04T15:55:25.315Z,57.90
2018-12-04T15:57:53.463Z,58.00
2018-12-04T16:00:21.585Z,58.80
2018-12-04T16:02:49.678Z,58.10
2018-12-04T16:05:17.806Z,59.30
2018-12-04T16:07:45.960Z,60.00
2018-12-04T16:10:15.871Z,59.30
2018-12-04T16:12:44.000Z,59.60
2018-12-04T16:15:12.267Z,59.60
2018-12-04T16:17:40.355Z,59.70
2018-12-04T16:20:09.208Z,60.10
2018-12-04T16:22:37.380Z,60.40
2018-12-04T16:25:07.622Z,60.60
2018-12-04T16:27:35.806Z,60.70
2018-12-04T16:30:06.997Z,61.60
2018-12-04T16:32:35.206Z,61.10
2018-12-04T16:35:04.387Z,61.40
2018-12-04T16:37:32.684Z,61.80
2018-12-04T16:40:00.931Z,62.10
2018-12-04T16:42:29.002Z,62.20
2018-12-04T16:44:57.239Z,62.70
2018-12-04T16:47:25.508Z,61.80
2018-12-04T16:49:53.722Z,62.50
2018-12-04T16:52:22.060Z,62.70
2018-12-04T16:54:50.364Z,63.10
2018-12-04T16:57:18.621Z,63.20
2018-12-04T16:59:46.898Z,63.70
2018-12-04T17:02:15.395Z,63.70
2018-12-04T17:04:43.636Z,63.30
2018-12-04T17:07:12.016Z,63.50
2018-12-04T17:09:40.479Z,63.40
2018-12-04T17:12:08.972Z,64.10
2018-12-04T17:14:37.094Z,63.00
2018-12-04T17:17:05.300Z,63.10
2018-12-04T17:19:34.176Z,62.50
2018-12-04T17:22:03.189Z,62.60
2018-12-04T17:24:31.392Z,63.00
2018-12-04T17:26:59.678Z,63.20
2018-12-04T17:29:27.920Z,63.30
2018-12-04T17:31:56.240Z,63.10
2018-12-04T17:34:24.600Z,63.70
2018-12-04T17:36:52.749Z,63.60
2018-12-04T17:39:20.888Z,62.70
2018-12-04T17:41:49.054Z,62.80
2018-12-04T17:44:17.372Z,63.30
2018-12-04T17:46:45.599Z,63.80
2018-12-04T17:49:13.867Z,63.70
2018-12-04T17:51:42.443Z,63.30
2018-12-04T17:54:10.726Z,63.80
2018-12-04T17:56:39.017Z,64.40
2018-12-04T17:59:07.321Z,64.50
2018-12-04T18:01:35.734Z,64.60
2018-12-04T18:04:04.021Z,64.90
2018-12-04T18:06:32.332Z,65.10
2018-12-04T18:09:00.566Z,65.10
2018-12-04T18:11:28.679Z,65.30
2018-12-04T18:13:56.963Z,65.40
2018-12-04T18:16:25.091Z,65.50
2018-12-04T18:18:53.398Z,65.60
2018-12-04T18:21:21.581Z,64.90
2018-12-04T18:23:49.854Z,63.60
2018-12-04T18:26:18.053Z,64.10
2018-12-04T18:28:46.324Z,65.10
2018-12-04T18:31:14.502Z,66.50
2018-12-04T18:33:42.738Z,66.60
2018-12-04T18:36:10.913Z,66.90
2018-12-04T18:38:39.140Z,67.20
2018-12-04T18:41:08.070Z,65.90
2018-12-04T18:43:36.308Z,66.50
2018-12-04T18:46:04.676Z,67.60
2018-12-04T18:48:32.884Z,68.40
2018-12-04T18:51:01.425Z,68.70
2018-12-04T18:53:29.721Z,68.70
2018-12-04T18:55:58.043Z,68.70
2018-12-04T18:58:26.248Z,68.90
2018-12-04T19:00:54.496Z,68.70
2018-12-04T19:03:22.691Z,69.30
2018-12-04T19:05:51.046Z,67.80
2018-12-04T19:08:24.586Z,68.00
2018-12-04T19:10:53.169Z,68.50
2018-12-04T19:13:21.577Z,69.20
2018-12-04T19:15:49.847Z,69.50
2018-12-04T19:18:18.048Z,69.60
2018-12-04T19:20:46.305Z,69.80
2018-12-04T19:23:14.581Z,69.90
2018-12-04T19:25:42.908Z,68.60
2018-12-04T19:28:11.256Z,69.00
2018-12-04T19:30:39.508Z,69.90
2018-12-04T19:33:08.905Z,70.20
2018-12-04T19:35:37.000Z,69.90
2018-12-04T19:38:05.320Z,69.90
2018-12-04T19:40:33.497Z,70.20
2018-12-04T19:43:01.658Z,69.70
2018-12-04T19:45:29.935Z,70.00
2018-12-04T19:47:58.474Z,70.00
2018-12-04T19:50:26.667Z,70.90
2018-12-04T19:52:54.971Z,70.70
2018-12-04T19:55:23.283Z,70.40
2018-12-04T19:57:51.594Z,70.70
2018-12-04T20:00:19.952Z,70.70
2018-12-04T20:02:48.216Z,70.70
2018-12-04T20:05:16.553Z,71.20
2018-12-04T20:07:44.986Z,73.50
2018-12-04T20:10:13.187Z,72.50
2018-12-04T20:12:41.417Z,72.10
2018-12-04T20:15:10.031Z,71.70
2018-12-04T20:17:38.391Z,70.60
2018-12-04T20:20:06.923Z,71.00
2018-12-04T20:22:35.250Z,70.60
2018-12-04T20:25:04.423Z,70.90
2018-12-04T20:27:32.654Z,71.00
2018-12-04T20:30:01.029Z,70.50
2018-12-04T20:32:29.339Z,70.20
2018-12-04T20:34:57.661Z,71.10
2018-12-04T20:37:26.052Z,72.20
2018-12-04T20:39:54.381Z,72.70
2018-12-04T20:42:23.324Z,73.00
2018-12-04T20:44:52.267Z,73.10
2018-12-04T20:47:20.445Z,72.40
2018-12-04T20:49:48.891Z,72.10
2018-12-04T20:52:17.385Z,72.90
2018-12-04T20:54:45.750Z,73.30
2018-12-04T20:57:14.115Z,73.10
2018-12-04T20:59:42.385Z,72.90
2018-12-04T21:02:10.767Z,72.60
2018-12-04T21:04:39.083Z,72.10
2018-12-04T21:07:07.426Z,72.40
2018-12-04T21:09:35.839Z,72.50
2018-12-04T21:12:04.236Z,72.60
2018-12-04T21:14:32.704Z,72.50
2018-12-04T21:17:00.934Z,72.50
2018-12-04T21:19:29.388Z,72.20
2018-12-04T21:21:58.211Z,72.30
2018-12-04T21:24:26.482Z,72.90
2018-12-04T21:26:54.823Z,73.40
2018-12-04T21:29:29.513Z,73.30
2018-12-04T21:32:03.281Z,73.70
2018-12-04T21:34:37.371Z,74.10
2018-12-04T21:37:11.379Z,74.20
2018-12-04T21:39:42.487Z,74.20
2018-12-04T21:42:16.685Z,74.20
2018-12-04T21:44:50.915Z,74.60
2018-12-04T21:47:25.235Z,74.80
2018-12-04T21:49:54.004Z,74.90
2018-12-04T21:52:22.418Z,75.80
2018-12-04T21:54:51.682Z,76.20
2018-12-04T21:57:20.533Z,75.60
2018-12-04T21:59:48.713Z,75.50
2018-12-04T22:02:16.950Z,75.00
2018-12-04T22:04:45.546Z,75.50
2018-12-04T22:07:13.922Z,75.70
2018-12-04T22:09:42.777Z,75.70
2018-12-04T22:12:11.930Z,75.50
2018-12-04T22:14:41.225Z,74.30
2018-12-04T22:17:10.188Z,73.60
2018-12-04T22:19:38.655Z,73.70
2018-12-04T22:22:07.160Z,75.50
2018-12-04T22:24:35.528Z,76.10
2018-12-04T22:27:04.252Z,75.60
2018-12-04T22:29:32.390Z,75.10
2018-12-04T22:32:00.621Z,75.80
2018-12-04T22:34:28.922Z,75.20
2018-12-04T22:36:58.439Z,76.40
2018-12-04T22:39:27.078Z,75.90
2018-12-04T22:41:55.507Z,75.80
2018-12-04T22:44:23.814Z,75.20
2018-12-04T22:46:52.104Z,75.40
2018-12-04T22:49:20.313Z,74.70
2018-12-04T22:51:48.650Z,74.90
2018-12-04T22:54:16.853Z,75.20
2018-12-04T22:56:44.984Z,75.20
2018-12-04T22:59:13.116Z,74.70
2018-12-04T23:01:41.695Z,74.90
2018-12-04T23:04:09.900Z,75.60
2018-12-04T23:06:38.168Z,76.00
2018-12-04T23:09:10.584Z,76.00
2018-12-04T23:11:39.366Z,77.00
2018-12-04T23:14:07.612Z,76.10
2018-12-04T23:16:35.971Z,76.00
2018-12-04T23:19:04.651Z,75.90
2018-12-04T23:21:32.842Z,76.10
2018-12-04T23:24:01.118Z,76.30
2018-12-04T23:26:29.286Z,77.00
2018-12-04T23:28:57.486Z,77.40
2018-12-04T23:31:25.850Z,77.00
2018-12-04T23:33:54.207Z,76.80
2018-12-04T23:36:22.463Z,76.30
2018-12-04T23:38:50.522Z,76.40
2018-12-04T23:41:18.852Z,76.90
2018-12-04T23:43:47.166Z,77.10
2018-12-04T23:46:15.293Z,76.10
2018-12-04T23:48:43.347Z,75.50
2018-12-04T23:51:11.473Z,75.60
2018-12-04T23:53:39.514Z,75.60
2018-12-04T23:56:07.622Z,75.70
2018-12-04T23:58:35.743Z,76.10
